Time;durP1;ratioP1;P1;durP2;ratioP2;P2;SDS_P1;SDS_P2;PMS_P1;PMS_P2;Temp;Humidity;BMP_temperature;BMP_pressure;BME280_temperature;BME280_humidity;BME280_pressure;Samples;Min_cycle;Max_cycle;Signal;HPM_P1;HPM_P2
2022/07/03 00:00:07;;;;;;;11.55;7.80;;;;;;;;;;5034941;28;20021;-37
2022/07/03 00:02:32;;;;;;;11.98;6.95;;;;;;;;;;5034530;28;20025;-37
2022/07/03 00:04:58;;;;;;;9.13;7.20;;;;;;;;;;5033897;28;20025;-37
2022/07/03 00:07:23;;;;;;;8.52;6.70;;;;;;;;;;5034403;28;20124;-38
2022/07/03 00:09:49;;;;;;;11.23;7.25;;;;;;;;;;5034257;28;20033;-37
2022/07/03 00:12:14;;;;;;;10.95;6.22;;;;;;;;;;5034800;28;20040;-37
2022/07/03 00:14:39;;;;;;;7.72;6.10;;;;;;;;;;5033743;28;20032;-37
2022/07/03 00:17:05;;;;;;;8.63;6.47;;;;;;;;;;5020890;28;20029;-37
2022/07/03 00:19:30;;;;;;;9.48;6.10;;;;;;;;;;5013985;28;20026;-39
2022/07/03 00:21:56;;;;;;;8.75;6.40;;;;;;;;;;5014871;28;20025;-37
2022/07/03 00:24:45;;;;;;;8.68;6.35;;;;;;;;;;5013762;28;20028;-38
2022/07/03 00:27:11;;;;;;;10.38;6.30;;;;;;;;;;5013785;28;20382;-37
2022/07/03 00:29:37;;;;;;;7.45;6.20;;;;;;;;;;5014037;28;20022;-38
2022/07/03 00:32:03;;;;;;;8.55;5.93;;;;;;;;;;5014474;28;20025;-37
2022/07/03 00:34:29;;;;;;;8.40;6.38;;;;;;;;;;4995996;28;20057;-37
2022/07/03 00:36:57;;;;;;;6.70;5.72;;;;;;;;;;5013951;28;20437;-37
2022/07/03 00:39:22;;;;;;;8.25;6.32;;;;;;;;;;5014058;28;20022;-37
2022/07/03 00:41:58;;;;;;;9.75;6.35;;;;;;;;;;5014138;28;20719;-37
2022/07/03 00:44:25;;;;;;;9.18;6.70;;;;;;;;;;5013642;28;20084;-39
2022/07/03 00:46:52;;;;;;;7.68;6.00;;;;;;;;;;5014061;28;20480;-37
2022/07/03 00:49:18;;;;;;;8.70;6.55;;;;;;;;;;5013830;28;20029;-37
2022/07/03 00:51:48;;;;;;;10.63;6.40;;;;;;;;;;5013906;28;20072;-38
2022/07/03 00:54:16;;;;;;;9.05;7.50;;;;;;;;;;5013590;28;20033;-37
2022/07/03 00:56:46;;;;;;;11.30;8.00;;;;;;;;;;5013743;28;20040;-38
2022/07/03 00:59:11;;;;;;;11.65;7.35;;;;;;;;;;5013748;28;20365;-38
2022/07/03 01:01:38;;;;;;;8.43;6.70;;;;;;;;;;5013684;28;20018;-37
2022/07/03 01:04:13;;;;;;;8.27;6.70;;;;;;;;;;5012784;28;20752;-38
2022/07/03 01:06:59;;;;;;;10.82;7.80;;;;;;;;;;5014006;28;20350;-37
2022/07/03 01:09:51;;;;;;;12.00;7.25;;;;;;;;;;5013533;28;20040;-38
2022/07/03 01:12:26;;;;;;;7.82;6.68;;;;;;;;;;5012930;28;20042;-37
2022/07/03 01:14:58;;;;;;;9.75;6.65;;;;;;;;;;5018903;28;20026;-37
2022/07/03 01:17:31;;;;;;;9.95;6.40;;;;;;;;;;5016900;28;20029;-39
2022/07/03 01:20:01;;;;;;;11.13;6.35;;;;;;;;;;5013420;28;20190;-37
2022/07/03 01:22:41;;;;;;;9.23;6.65;;;;;;;;;;5013295;28;20105;-38
2022/07/03 01:25:14;;;;;;;7.32;6.20;;;;;;;;;;5013024;28;20084;-37
2022/07/03 01:27:47;;;;;;;9.10;5.80;;;;;;;;;;5013363;28;20125;-38
2022/07/03 01:30:13;;;;;;;12.00;6.72;;;;;;;;;;5013415;28;20062;-38
2022/07/03 01:32:39;;;;;;;11.90;7.35;;;;;;;;;;5012984;28;20076;-38
2022/07/03 01:35:06;;;;;;;9.57;6.80;;;;;;;;;;5012848;28;20053;-37
2022/07/03 01:37:33;;;;;;;7.80;5.68;;;;;;;;;;5012756;28;20097;-37
2022/07/03 01:40:00;;;;;;;7.78;6.72;;;;;;;;;;5012314;28;20468;-38
2022/07/03 01:42:25;;;;;;;8.27;6.72;;;;;;;;;;5012902;28;20022;-39
2022/07/03 01:44:54;;;;;;;8.85;6.97;;;;;;;;;;5012512;28;20034;-37
2022/07/03 01:47:21;;;;;;;8.75;6.88;;;;;;;;;;5013166;28;20029;-37
2022/07/03 01:49:48;;;;;;;10.93;6.78;;;;;;;;;;5012248;28;20477;-37
2022/07/03 01:52:15;;;;;;;9.70;6.43;;;;;;;;;;5012646;28;20030;-37
2022/07/03 01:54:41;;;;;;;10.38;7.05;;;;;;;;;;5012433;28;20029;-37
2022/07/03 01:57:07;;;;;;;8.65;7.32;;;;;;;;;;5012739;28;20361;-39
2022/07/03 01:59:32;;;;;;;10.07;6.72;;;;;;;;;;5012855;28;20018;-37
2022/07/03 02:01:57;;;;;;;9.23;6.90;;;;;;;;;;5012429;28;20029;-37
2022/07/03 02:04:32;;;;;;;8.40;6.00;;;;;;;;;;5012450;28;20480;-39
2022/07/03 02:07:11;;;;;;;9.15;6.97;;;;;;;;;;5012208;28;20036;-38
2022/07/03 02:09:59;;;;;;;12.23;6.88;;;;;;;;;;5012484;28;20028;-37
2022/07/03 02:12:27;;;;;;;9.15;7.38;;;;;;;;;;5012134;28;20068;-38
2022/07/03 02:14:59;;;;;;;10.60;6.95;;;;;;;;;;5017158;28;20064;-37
2022/07/03 02:17:27;;;;;;;9.77;7.22;;;;;;;;;;5015740;28;20061;-38
2022/07/03 02:19:57;;;;;;;11.18;7.10;;;;;;;;;;5012401;28;20026;-37
2022/07/03 02:22:33;;;;;;;9.90;6.72;;;;;;;;;;5012349;28;20033;-38
2022/07/03 02:25:08;;;;;;;8.32;6.20;;;;;;;;;;5011842;28;20484;-37
2022/07/03 02:27:44;;;;;;;9.30;7.22;;;;;;;;;;5011946;28;20029;-37
2022/07/03 02:30:10;;;;;;;10.90;7.45;;;;;;;;;;5012063;28;20025;-37
2022/07/03 02:32:37;;;;;;;9.48;7.00;;;;;;;;;;5011751;28;20030;-39
2022/07/03 02:35:03;;;;;;;9.23;7.07;;;;;;;;;;5011461;28;20050;-37
2022/07/03 02:37:31;;;;;;;13.38;8.10;;;;;;;;;;5012035;28;20377;-37
2022/07/03 02:40:17;;;;;;;8.73;7.13;;;;;;;;;;5012208;28;20416;-40
2022/07/03 02:42:47;;;;;;;9.30;6.80;;;;;;;;;;5010324;28;20029;-40
2022/07/03 02:45:13;;;;;;;14.48;7.43;;;;;;;;;;5011688;28;20108;-42
2022/07/03 02:47:41;;;;;;;13.38;8.07;;;;;;;;;;5011812;28;20066;-37
2022/07/03 02:50:11;;;;;;;10.00;7.53;;;;;;;;;;5043687;28;20028;-37
2022/07/03 02:52:36;;;;;;;;;;;;;;;;;;5011699;28;20276;-37
2022/07/03 02:55:07;;;;;;;11.03;7.80;;;;;;;;;;5011316;28;19963;-37
2022/07/03 02:57:39;;;;;;;10.95;7.80;;;;;;;;;;5011824;28;20026;-37
2022/07/03 03:00:06;;;;;;;11.57;8.23;;;;;;;;;;5011894;28;20025;-37
2022/07/03 03:02:31;;;;;;;10.23;8.00;;;;;;;;;;5011667;28;20105;-38
2022/07/03 03:05:16;;;;;;;11.18;7.40;;;;;;;;;;5011428;28;20100;-38
2022/07/03 03:07:50;;;;;;;9.75;7.43;;;;;;;;;;5011449;28;20461;-39
2022/07/03 03:10:18;;;;;;;12.02;8.15;;;;;;;;;;5011812;28;20029;-37
2022/07/03 03:12:44;;;;;;;11.82;8.75;;;;;;;;;;5011489;28;20041;-38
2022/07/03 03:15:12;;;;;;;13.00;7.55;;;;;;;;;;5019604;28;20033;-37
2022/07/03 03:17:47;;;;;;;9.85;7.45;;;;;;;;;;5012655;28;20030;-37
2022/07/03 03:20:16;;;;;;;12.15;8.38;;;;;;;;;;5011494;28;20053;-38
2022/07/03 03:22:50;;;;;;;11.20;7.83;;;;;;;;;;5011303;28;20056;-36
2022/07/03 03:25:15;;;;;;;11.38;8.27;;;;;;;;;;5011187;28;20037;-39
2022/07/03 03:27:41;;;;;;;11.70;7.82;;;;;;;;;;5014033;28;20018;-37
2022/07/03 03:30:06;;;;;;;9.60;7.47;;;;;;;;;;5015623;28;20079;-37
2022/07/03 03:32:34;;;;;;;10.65;8.15;;;;;;;;;;5015259;28;20018;-37
2022/07/03 03:34:59;;;;;;;11.07;7.55;;;;;;;;;;5013308;28;20748;-37
2022/07/03 03:37:25;;;;;;;14.82;8.73;;;;;;;;;;5015370;28;20123;-38
2022/07/03 03:39:50;;;;;;;10.50;8.18;;;;;;;;;;5015547;28;20021;-37
2022/07/03 03:42:16;;;;;;;10.52;7.90;;;;;;;;;;5014993;28;20105;-39
2022/07/03 03:44:41;;;;;;;11.07;8.32;;;;;;;;;;5014723;28;20017;-37
2022/07/03 03:47:06;;;;;;;10.23;7.57;;;;;;;;;;5015267;28;20057;-38
2022/07/03 03:49:32;;;;;;;10.95;7.93;;;;;;;;;;5015004;28;20046;-37
2022/07/03 03:51:58;;;;;;;11.90;7.43;;;;;;;;;;5015214;28;20026;-38
2022/07/03 03:54:23;;;;;;;11.23;7.97;;;;;;;;;;5014729;28;20026;-37
2022/07/03 03:56:48;;;;;;;14.20;9.68;;;;;;;;;;5014704;28;20443;-37
2022/07/03 03:59:14;;;;;;;13.48;9.55;;;;;;;;;;5014988;28;20097;-37
2022/07/03 04:01:39;;;;;;;10.65;8.00;;;;;;;;;;5014265;28;20032;-38
2022/07/03 04:04:05;;;;;;;10.93;7.60;;;;;;;;;;5014766;28;20022;-37
2022/07/03 04:06:30;;;;;;;10.40;7.95;;;;;;;;;;5015111;28;20052;-37
2022/07/03 04:08:55;;;;;;;11.85;9.13;;;;;;;;;;5015213;28;20029;-38
2022/07/03 04:11:21;;;;;;;8.75;7.35;;;;;;;;;;5014867;28;20010;-37
2022/07/03 04:13:46;;;;;;;12.20;8.07;;;;;;;;;;5014459;28;20044;-36
2022/07/03 04:16:12;;;;;;;9.40;7.82;;;;;;;;;;5024802;28;20030;-37
2022/07/03 04:18:37;;;;;;;9.23;7.43;;;;;;;;;;5014115;28;20030;-37
2022/07/03 04:21:03;;;;;;;11.95;8.30;;;;;;;;;;5014816;28;20037;-38
2022/07/03 04:23:28;;;;;;;10.95;7.88;;;;;;;;;;5014330;28;20025;-37
2022/07/03 04:25:54;;;;;;;10.48;7.82;;;;;;;;;;5014279;28;20045;-37
2022/07/03 04:28:19;;;;;;;11.80;8.35;;;;;;;;;;5014311;28;20018;-37
2022/07/03 04:30:44;;;;;;;10.68;7.43;;;;;;;;;;5014267;28;20022;-37
2022/07/03 04:33:10;;;;;;;9.60;7.13;;;;;;;;;;5014200;28;20156;-37
2022/07/03 04:35:35;;;;;;;9.18;7.20;;;;;;;;;;5014185;28;20092;-40
2022/07/03 04:38:00;;;;;;;11.70;8.48;;;;;;;;;;5013986;28;20105;-37
2022/07/03 04:40:25;;;;;;;10.25;8.30;;;;;;;;;;5014297;28;20149;-41
2022/07/03 04:42:51;;;;;;;9.27;8.00;;;;;;;;;;5014058;28;20076;-38
2022/07/03 04:45:16;;;;;;;8.83;6.70;;;;;;;;;;5013847;28;20022;-37
2022/07/03 04:47:42;;;;;;;9.95;8.15;;;;;;;;;;5013687;28;20243;-37
2022/07/03 04:50:07;;;;;;;9.55;7.50;;;;;;;;;;5014345;28;20484;-37
2022/07/03 04:52:33;;;;;;;10.48;7.43;;;;;;;;;;5013715;28;20089;-38
2022/07/03 04:54:58;;;;;;;10.20;7.75;;;;;;;;;;5013507;28;20112;-37
2022/07/03 04:57:23;;;;;;;9.73;7.88;;;;;;;;;;5014034;28;20113;-37
2022/07/03 04:59:49;;;;;;;10.88;7.38;;;;;;;;;;5013809;28;20385;-37
2022/07/03 05:02:14;;;;;;;11.33;7.57;;;;;;;;;;5013327;28;20026;-39
2022/07/03 05:04:39;;;;;;;8.95;7.53;;;;;;;;;;5013227;28;20278;-39
2022/07/03 05:07:05;;;;;;;19.37;8.10;;;;;;;;;;5013731;28;20025;-38
2022/07/03 05:09:30;;;;;;;12.18;8.07;;;;;;;;;;5013933;28;20235;-37
2022/07/03 05:11:55;;;;;;;9.88;7.53;;;;;;;;;;5013466;28;20461;-41
2022/07/03 05:14:21;;;;;;;10.73;7.47;;;;;;;;;;5015381;28;20033;-37
2022/07/03 05:16:46;;;;;;;8.52;7.10;;;;;;;;;;5021708;28;20032;-37
2022/07/03 05:19:11;;;;;;;10.75;7.47;;;;;;;;;;5012972;28;20028;-37
2022/07/03 05:21:37;;;;;;;11.25;7.10;;;;;;;;;;5013296;28;20102;-37
2022/07/03 05:24:02;;;;;;;10.55;6.78;;;;;;;;;;5013320;28;20100;-37
2022/07/03 05:26:27;;;;;;;9.02;7.38;;;;;;;;;;5013351;28;20053;-38
2022/07/03 05:28:53;;;;;;;7.50;6.65;;;;;;;;;;5012962;28;20444;-37
2022/07/03 05:31:18;;;;;;;9.03;7.53;;;;;;;;;;5013393;28;20022;-37
2022/07/03 05:33:43;;;;;;;8.20;6.57;;;;;;;;;;5012642;28;20239;-38
2022/07/03 05:36:09;;;;;;;10.75;6.22;;;;;;;;;;5012956;28;20413;-38
2022/07/03 05:41:18;;;;;;;8.00;6.38;;;;;;;;;;5013338;28;20164;-37
2022/07/03 05:43:43;;;;;;;7.60;6.80;;;;;;;;;;5012839;28;20101;-37
2022/07/03 05:46:09;;;;;;;7.88;6.55;;;;;;;;;;5012638;28;20489;-37
2022/07/03 05:48:34;;;;;;;7.88;6.70;;;;;;;;;;5012710;28;20134;-39
2022/07/03 05:51:00;;;;;;;8.70;6.68;;;;;;;;;;5012720;28;20026;-37
2022/07/03 05:53:25;;;;;;;8.93;7.20;;;;;;;;;;5012177;28;20026;-38
2022/07/03 05:55:50;;;;;;;8.20;6.70;;;;;;;;;;5012595;28;20048;-37
2022/07/03 05:58:16;;;;;;;8.15;6.90;;;;;;;;;;5013231;28;20026;-41
2022/07/03 06:00:41;;;;;;;8.93;6.80;;;;;;;;;;5012580;28;20056;-38
2022/07/03 06:03:07;;;;;;;7.10;6.40;;;;;;;;;;5012297;28;20022;-39
2022/07/03 06:05:32;;;;;;;11.55;6.63;;;;;;;;;;5012359;28;20530;-37
2022/07/03 06:07:58;;;;;;;7.00;6.18;;;;;;;;;;5012474;28;20014;-38
2022/07/03 06:10:24;;;;;;;7.43;6.68;;;;;;;;;;5012999;28;20088;-39
2022/07/03 06:12:49;;;;;;;12.10;6.25;;;;;;;;;;5012295;28;20056;-37
2022/07/03 06:15:15;;;;;;;8.48;6.65;;;;;;;;;;5020815;28;20113;-39
2022/07/03 06:17:40;;;;;;;8.50;6.88;;;;;;;;;;5013317;28;20088;-37
2022/07/03 06:20:06;;;;;;;7.93;6.32;;;;;;;;;;5012692;28;20018;-39
2022/07/03 06:22:31;;;;;;;9.93;6.72;;;;;;;;;;5012297;28;20026;-37
2022/07/03 06:24:57;;;;;;;9.32;6.40;;;;;;;;;;5011689;28;20010;-37
2022/07/03 06:27:22;;;;;;;7.77;5.83;;;;;;;;;;5012115;28;20018;-37
2022/07/03 06:29:49;;;;;;;8.75;6.90;;;;;;;;;;5011559;28;20488;-39
2022/07/03 06:32:14;;;;;;;12.00;6.25;;;;;;;;;;5011851;28;20080;-37
2022/07/03 06:34:40;;;;;;;8.07;6.53;;;;;;;;;;5011689;28;20049;-37
2022/07/03 06:37:07;;;;;;;7.72;6.45;;;;;;;;;;5011823;28;20050;-38
2022/07/03 06:39:32;;;;;;;8.35;6.68;;;;;;;;;;5011961;28;20451;-37
2022/07/03 06:41:57;;;;;;;7.53;6.27;;;;;;;;;;5011858;28;20461;-37
2022/07/03 06:44:23;;;;;;;10.30;6.70;;;;;;;;;;5011630;28;20053;-38
2022/07/03 06:46:48;;;;;;;11.82;6.03;;;;;;;;;;5011243;28;20022;-41
2022/07/03 06:49:13;;;;;;;9.17;6.53;;;;;;;;;;5012020;28;20076;-37
2022/07/03 06:51:39;;;;;;;6.50;5.87;;;;;;;;;;5011911;28;20024;-37
2022/07/03 06:54:04;;;;;;;8.57;6.20;;;;;;;;;;5011194;28;20266;-39
2022/07/03 06:56:29;;;;;;;10.02;6.35;;;;;;;;;;5011361;28;20496;-39
2022/07/03 06:58:55;;;;;;;6.88;5.93;;;;;;;;;;5011510;28;20033;-37
2022/07/03 07:01:20;;;;;;;12.77;6.07;;;;;;;;;;5011398;28;20465;-38
2022/07/03 07:03:45;;;;;;;9.13;5.83;;;;;;;;;;5011117;28;20026;-39
2022/07/03 07:06:11;;;;;;;7.10;6.40;;;;;;;;;;5011196;28;20235;-39
2022/07/03 07:08:36;;;;;;;8.48;6.40;;;;;;;;;;5011599;28;20022;-40
2022/07/03 07:11:01;;;;;;;18.80;6.63;;;;;;;;;;5011650;28;20030;-37
2022/07/03 07:13:27;;;;;;;7.55;5.70;;;;;;;;;;5011080;28;20235;-39
2022/07/03 07:15:52;;;;;;;8.48;6.45;;;;;;;;;;5021050;28;20073;-37
2022/07/03 07:18:18;;;;;;;9.25;6.40;;;;;;;;;;5011187;28;20018;-40
2022/07/03 07:20:43;;;;;;;8.40;6.03;;;;;;;;;;5011521;28;20026;-37
2022/07/03 07:23:08;;;;;;;15.75;6.45;;;;;;;;;;5011128;28;20076;-38
2022/07/03 07:25:34;;;;;;;11.57;5.77;;;;;;;;;;5010924;28;20037;-38
2022/07/03 07:27:59;;;;;;;6.07;5.47;;;;;;;;;;5011445;28;20242;-37
2022/07/03 07:30:24;;;;;;;8.27;6.57;;;;;;;;;;5010927;28;20045;-37
2022/07/03 07:32:49;;;;;;;6.88;5.68;;;;;;;;;;5010693;28;20026;-38
2022/07/03 07:35:16;;;;;;;8.53;6.00;;;;;;;;;;5010966;28;20057;-38
2022/07/03 07:37:41;;;;;;;8.32;6.40;;;;;;;;;;5011173;28;20033;-37
2022/07/03 07:40:07;;;;;;;6.70;6.00;;;;;;;;;;5011036;28;20070;-37
2022/07/03 07:42:32;;;;;;;9.60;5.90;;;;;;;;;;5011106;28;20022;-37
2022/07/03 07:44:58;;;;;;;7.17;5.67;;;;;;;;;;5010779;28;20097;-38
2022/07/03 07:47:23;;;;;;;7.75;6.00;;;;;;;;;;5011225;28;20088;-36
2022/07/03 07:49:48;;;;;;;10.20;5.87;;;;;;;;;;5010844;28;20102;-37
2022/07/03 07:52:13;;;;;;;5.50;4.72;;;;;;;;;;5010843;28;20037;-37
2022/07/03 07:54:39;;;;;;;6.70;6.00;;;;;;;;;;5010731;28;20076;-36
2022/07/03 07:57:04;;;;;;;5.90;4.73;;;;;;;;;;5010862;28;20401;-35
2022/07/03 07:59:29;;;;;;;6.10;5.50;;;;;;;;;;5011031;28;20025;-36
2022/07/03 08:07:22;;;;;;;14.15;5.57;;;;;;;;;;5010668;28;20032;-39
2022/07/03 08:09:48;;;;;;;8.80;5.40;;;;;;;;;;5010883;28;20034;-38
2022/07/03 08:12:13;;;;;;;6.25;4.78;;;;;;;;;;5011529;28;20314;-36
2022/07/03 08:14:38;;;;;;;13.43;5.43;;;;;;;;;;5018717;28;20028;-37
2022/07/03 08:17:05;;;;;;;7.60;5.38;;;;;;;;;;5020121;28;20022;-38
2022/07/03 08:19:30;;;;;;;8.68;5.82;;;;;;;;;;5014473;28;20033;-38
2022/07/03 08:21:56;;;;;;;10.50;5.75;;;;;;;;;;5014421;28;20022;-37
2022/07/03 08:24:21;;;;;;;7.03;5.72;;;;;;;;;;5014211;28;20393;-37
2022/07/03 08:26:46;;;;;;;7.90;5.95;;;;;;;;;;5013906;28;20060;-37
2022/07/03 08:29:12;;;;;;;7.23;6.03;;;;;;;;;;5014281;28;20026;-38
2022/07/03 08:31:37;;;;;;;6.07;5.10;;;;;;;;;;5014292;28;20053;-37
2022/07/03 08:34:02;;;;;;;8.00;6.03;;;;;;;;;;5013882;28;20018;-37
2022/07/03 08:36:28;;;;;;;9.18;5.80;;;;;;;;;;5013842;28;20046;-36
2022/07/03 08:38:53;;;;;;;6.73;5.33;;;;;;;;;;5013999;28;20029;-39
2022/07/03 08:41:18;;;;;;;7.93;5.65;;;;;;;;;;5013953;28;20101;-39
2022/07/03 08:43:44;;;;;;;10.95;6.10;;;;;;;;;;5013902;28;20029;-38
2022/07/03 08:46:11;;;;;;;6.75;5.40;;;;;;;;;;5013541;28;20381;-36
2022/07/03 08:48:36;;;;;;;6.18;4.70;;;;;;;;;;5014086;28;20022;-37
2022/07/03 08:51:02;;;;;;;5.43;4.63;;;;;;;;;;5013608;28;20030;-36
2022/07/03 08:53:27;;;;;;;9.35;5.55;;;;;;;;;;5013648;28;20692;-40
2022/07/03 08:55:53;;;;;;;11.50;5.10;;;;;;;;;;5013442;28;20473;-36
2022/07/03 08:58:21;;;;;;;23.73;5.30;;;;;;;;;;5013854;28;20634;-40
2022/07/03 09:00:46;;;;;;;12.73;4.82;;;;;;;;;;5013562;28;20022;-37
2022/07/03 09:03:13;;;;;;;8.35;5.05;;;;;;;;;;5013626;28;20022;-36
2022/07/03 09:05:39;;;;;;;8.00;5.28;;;;;;;;;;5045146;28;20368;-39
2022/07/03 09:08:08;;;;;;;9.65;4.40;;;;;;;;;;5013262;28;20025;-36
2022/07/03 09:10:33;;;;;;;7.85;4.85;;;;;;;;;;5013532;28;20438;-37
2022/07/03 09:12:59;;;;;;;8.70;4.97;;;;;;;;;;5013249;28;20045;-38
2022/07/03 09:15:24;;;;;;;6.83;4.90;;;;;;;;;;5023475;28;20079;-40
2022/07/03 09:17:59;;;;;;;6.20;4.80;;;;;;;;;;5013092;28;20331;-37
2022/07/03 09:20:32;;;;;;;9.35;4.90;;;;;;;;;;5013761;28;20350;-38
2022/07/03 09:23:08;;;;;;;7.47;4.55;;;;;;;;;;5013051;28;20373;-37
2022/07/03 09:25:33;;;;;;;4.38;3.92;;;;;;;;;;5012031;28;20474;-37
2022/07/03 09:27:58;;;;;;;7.10;4.50;;;;;;;;;;5013292;28;20067;-37
2022/07/03 09:30:24;;;;;;;6.33;3.87;;;;;;;;;;5013634;28;20079;-38
2022/07/03 09:32:49;;;;;;;5.90;3.97;;;;;;;;;;5013139;28;20024;-40
2022/07/03 09:35:22;;;;;;;6.05;3.88;;;;;;;;;;5044626;28;20446;-38
2022/07/03 09:38:04;;;;;;;6.72;3.78;;;;;;;;;;5012875;28;20033;-38
2022/07/03 09:40:51;;;;;;;5.97;4.05;;;;;;;;;;5012838;28;20036;-38
2022/07/03 09:43:23;;;;;;;4.00;3.58;;;;;;;;;;5012627;28;20022;-37
2022/07/03 09:45:52;;;;;;;6.13;3.65;;;;;;;;;;5012679;28;20057;-37
2022/07/03 09:48:21;;;;;;;9.20;3.67;;;;;;;;;;5013066;28;20470;-37
2022/07/03 09:50:46;;;;;;;5.97;3.78;;;;;;;;;;5012583;28;20105;-39
2022/07/03 09:53:12;;;;;;;7.22;5.07;;;;;;;;;;5012513;28;20113;-37
2022/07/03 09:55:37;;;;;;;9.57;3.77;;;;;;;;;;5012543;28;20030;-38
2022/07/03 09:58:03;;;;;;;6.53;3.67;;;;;;;;;;5012775;28;20246;-39
2022/07/03 10:00:30;;;;;;;6.78;4.10;;;;;;;;;;5012666;28;20496;-38
2022/07/03 10:02:55;;;;;;;7.38;3.78;;;;;;;;;;5011740;28;20072;-42
2022/07/03 10:05:25;;;;;;;7.80;3.92;;;;;;;;;;5012126;28;20432;-42
2022/07/03 10:08:01;;;;;;;6.95;3.75;;;;;;;;;;5012702;28;20470;-38
2022/07/03 10:10:28;;;;;;;6.43;4.03;;;;;;;;;;5012700;28;20061;-38
2022/07/03 10:12:54;;;;;;;7.93;3.30;;;;;;;;;;5012313;28;20057;-38
2022/07/03 10:15:20;;;;;;;5.72;3.65;;;;;;;;;;5021967;28;20452;-38
2022/07/03 10:17:49;;;;;;;5.18;3.40;;;;;;;;;;5012349;28;20030;-39
2022/07/03 10:20:17;;;;;;;8.05;3.47;;;;;;;;;;5019787;28;20021;-38
2022/07/03 10:22:46;;;;;;;5.90;3.67;;;;;;;;;;5032005;28;20069;-39
2022/07/03 10:25:12;;;;;;;7.07;3.65;;;;;;;;;;5032000;28;20028;-38
2022/07/03 10:27:38;;;;;;;4.40;3.75;;;;;;;;;;5031573;28;20033;-38
2022/07/03 10:30:03;;;;;;;4.18;3.50;;;;;;;;;;5031871;28;20025;-37
2022/07/03 10:32:32;;;;;;;5.97;3.30;;;;;;;;;;5031859;28;20376;-40
2022/07/03 10:34:58;;;;;;;5.90;3.47;;;;;;;;;;5030839;28;20515;-37
2022/07/03 10:37:25;;;;;;;5.22;3.90;;;;;;;;;;5031597;28;20021;-38
2022/07/03 10:39:53;;;;;;;6.18;3.72;;;;;;;;;;5031712;28;20032;-37
2022/07/03 10:45:05;;;;;;;5.57;4.05;;;;;;;;;;5031211;28;20410;-39
2022/07/03 10:47:40;;;;;;;6.13;2.92;;;;;;;;;;5031362;28;20029;-39
2022/07/03 10:50:07;;;;;;;5.97;3.47;;;;;;;;;;5031893;28;20056;-37
2022/07/03 10:52:33;;;;;;;6.45;3.63;;;;;;;;;;5031591;28;20025;-39
2022/07/03 10:54:59;;;;;;;4.20;3.05;;;;;;;;;;5031107;28;20496;-39
2022/07/03 10:57:25;;;;;;;4.53;3.00;;;;;;;;;;5031266;28;20072;-38
2022/07/03 10:59:51;;;;;;;6.80;3.28;;;;;;;;;;5031234;28;20377;-39
2022/07/03 11:02:31;;;;;;;11.60;3.40;;;;;;;;;;5031753;28;20108;-38
2022/07/03 11:05:00;;;;;;;4.90;3.28;;;;;;;;;;5030846;28;20045;-40
2022/07/03 11:07:28;;;;;;;5.70;3.30;;;;;;;;;;5031269;28;20029;-41
2022/07/03 11:10:12;;;;;;;5.38;3.50;;;;;;;;;;5031146;28;20053;-38
2022/07/03 11:12:58;;;;;;;4.38;3.58;;;;;;;;;;5031166;28;20097;-37
2022/07/03 11:15:43;;;;;;;3.97;2.90;;;;;;;;;;5020576;28;20201;-38
2022/07/03 11:18:19;;;;;;;7.05;3.00;;;;;;;;;;5012046;28;20145;-38
2022/07/03 11:20:44;;;;;;;6.93;3.30;;;;;;;;;;5011398;28;20087;-39
2022/07/03 11:23:09;;;;;;;3.93;3.00;;;;;;;;;;5011425;28;20025;-38
2022/07/03 11:25:42;;;;;;;5.83;3.50;;;;;;;;;;5011309;28;20247;-38
2022/07/03 11:28:07;;;;;;;5.18;3.15;;;;;;;;;;5011181;28;20025;-39
2022/07/03 11:30:33;;;;;;;5.60;3.30;;;;;;;;;;5011525;28;20381;-38
2022/07/03 11:33:00;;;;;;;5.55;3.20;;;;;;;;;;5011044;28;20097;-38
2022/07/03 11:35:45;;;;;;;5.68;3.20;;;;;;;;;;5010718;28;20089;-39
2022/07/03 11:38:13;;;;;;;8.00;3.03;;;;;;;;;;5011228;28;20030;-39
2022/07/03 11:40:40;;;;;;;3.80;2.97;;;;;;;;;;5011206;28;20413;-38
2022/07/03 11:43:06;;;;;;;4.82;3.20;;;;;;;;;;5011104;28;20068;-40
2022/07/03 11:45:31;;;;;;;7.25;3.13;;;;;;;;;;5010813;28;20034;-39
2022/07/03 11:47:57;;;;;;;5.88;3.45;;;;;;;;;;5012495;28;20401;-40
2022/07/03 11:50:36;;;;;;;6.90;3.50;;;;;;;;;;5015326;28;20536;-40
2022/07/03 11:53:14;;;;;;;7.30;3.50;;;;;;;;;;5014775;28;20053;-40
2022/07/03 11:55:46;;;;;;;4.25;3.10;;;;;;;;;;5014342;28;20091;-40
2022/07/03 11:58:11;;;;;;;6.75;2.90;;;;;;;;;;5015025;28;20025;-38
2022/07/03 12:00:37;;;;;;;7.37;3.10;;;;;;;;;;5014999;28;20105;-39
2022/07/03 12:03:03;;;;;;;5.03;3.10;;;;;;;;;;5014720;28;20301;-42
2022/07/03 12:05:28;;;;;;;5.75;2.72;;;;;;;;;;5014098;28;20056;-39
2022/07/03 12:08:11;;;;;;;7.50;3.40;;;;;;;;;;5014765;28;20030;-38
2022/07/03 12:10:38;;;;;;;6.18;2.90;;;;;;;;;;5014702;28;20050;-38
2022/07/03 12:13:03;;;;;;;4.07;2.95;;;;;;;;;;5014448;28;20032;-39
2022/07/03 12:15:28;;;;;;;5.27;3.10;;;;;;;;;;5025111;28;20033;-39
2022/07/03 12:17:54;;;;;;;5.27;3.07;;;;;;;;;;5034277;28;20243;-38
2022/07/03 12:20:19;;;;;;;4.05;3.00;;;;;;;;;;5034284;28;20285;-38
2022/07/03 12:22:45;;;;;;;6.50;2.80;;;;;;;;;;5034164;28;20048;-39
2022/07/03 12:25:11;;;;;;;6.55;3.13;;;;;;;;;;5034089;28;20013;-39
2022/07/03 12:27:38;;;;;;;5.85;3.20;;;;;;;;;;5033713;28;20025;-38
2022/07/03 12:30:04;;;;;;;6.13;3.20;;;;;;;;;;5033866;28;20025;-38
2022/07/03 12:32:30;;;;;;;6.68;3.33;;;;;;;;;;5034080;28;20029;-41
2022/07/03 12:34:55;;;;;;;11.43;3.42;;;;;;;;;;5033496;28;20183;-38
2022/07/03 12:37:33;;;;;;;8.23;3.00;;;;;;;;;;5033612;28;20116;-38
2022/07/03 12:39:59;;;;;;;8.23;3.00;;;;;;;;;;5033349;28;20035;-37
2022/07/03 12:42:24;;;;;;;7.88;3.30;;;;;;;;;;5033701;28;20112;-39
2022/07/03 12:44:59;;;;;;;6.17;2.93;;;;;;;;;;5033841;28;20022;-38
2022/07/03 12:47:25;;;;;;;7.28;3.47;;;;;;;;;;5033924;28;20259;-39
2022/07/03 12:49:58;;;;;;;4.72;2.97;;;;;;;;;;5033507;28;20381;-38
2022/07/03 12:52:24;;;;;;;5.68;2.72;;;;;;;;;;5033544;28;20018;-37
2022/07/03 12:54:49;;;;;;;5.30;2.83;;;;;;;;;;5032965;28;20381;-38
2022/07/03 13:00:06;;;;;;;3.45;3.00;;;;;;;;;;5033254;28;20028;-37
2022/07/03 13:02:32;;;;;;;5.85;3.17;;;;;;;;;;5033840;28;20025;-40
2022/07/03 13:05:01;;;;;;;7.07;2.55;;;;;;;;;;5032158;28;20553;-41
2022/07/03 13:07:32;;;;;;;5.43;2.80;;;;;;;;;;5032883;28;20830;-38
2022/07/03 13:10:03;;;;;;;4.93;3.15;;;;;;;;;;5033476;28;20075;-38
2022/07/03 13:12:28;;;;;;;8.25;3.13;;;;;;;;;;5033435;28;20025;-38
2022/07/03 13:14:57;;;;;;;7.00;2.80;;;;;;;;;;5026145;28;20026;-38
2022/07/03 13:17:23;;;;;;;8.02;2.60;;;;;;;;;;5028941;28;20034;-41
2022/07/03 13:19:48;;;;;;;5.95;2.75;;;;;;;;;;5032794;28;20017;-38
2022/07/03 13:22:13;;;;;;;6.43;2.35;;;;;;;;;;5033397;28;20420;-37
2022/07/03 13:24:39;;;;;;;5.17;2.50;;;;;;;;;;5032674;28;20036;-38
2022/07/03 13:27:04;;;;;;;5.93;2.40;;;;;;;;;;5032579;28;20333;-38
2022/07/03 13:29:29;;;;;;;18.23;3.38;;;;;;;;;;5033166;28;20017;-38
2022/07/03 13:31:55;;;;;;;5.28;3.00;;;;;;;;;;5032504;28;20022;-37
2022/07/03 13:34:20;;;;;;;6.97;2.83;;;;;;;;;;5031924;28;20021;-39
2022/07/03 13:36:45;;;;;;;7.53;2.53;;;;;;;;;;5032069;28;20056;-40
2022/07/03 13:39:11;;;;;;;5.50;2.85;;;;;;;;;;5032986;28;20017;-38
2022/07/03 13:41:36;;;;;;;5.72;2.63;;;;;;;;;;5032358;28;20446;-37
2022/07/03 13:44:02;;;;;;;9.57;3.00;;;;;;;;;;5032252;28;20095;-40
2022/07/03 13:46:27;;;;;;;7.50;2.63;;;;;;;;;;5030989;28;20096;-38
2022/07/03 13:48:53;;;;;;;7.20;2.33;;;;;;;;;;5032963;28;20034;-38
2022/07/03 13:51:18;;;;;;;4.30;2.20;;;;;;;;;;5032288;28;20068;-38
2022/07/03 13:53:44;;;;;;;4.75;2.60;;;;;;;;;;5032036;28;20021;-41
2022/07/03 13:56:09;;;;;;;7.40;2.97;;;;;;;;;;5032112;28;20033;-38
2022/07/03 13:58:35;;;;;;;3.50;2.23;;;;;;;;;;5032476;28;20021;-40
2022/07/03 14:01:01;;;;;;;4.07;2.63;;;;;;;;;;5032622;28;20266;-38
2022/07/03 14:03:26;;;;;;;9.05;2.50;;;;;;;;;;5032080;28;20098;-41
2022/07/03 14:05:52;;;;;;;6.53;2.50;;;;;;;;;;5031252;28;20419;-38
2022/07/03 14:08:20;;;;;;;5.22;2.42;;;;;;;;;;5032555;28;20032;-38
2022/07/03 14:10:46;;;;;;;9.48;2.45;;;;;;;;;;5031508;28;20036;-41
2022/07/03 14:13:11;;;;;;;7.65;2.75;;;;;;;;;;5032126;28;20021;-37
2022/07/03 14:15:36;;;;;;;8.00;2.73;;;;;;;;;;5020415;28;20034;-42
2022/07/03 14:18:02;;;;;;;13.00;2.95;;;;;;;;;;5031778;28;20025;-37
2022/07/03 14:20:28;;;;;;;13.55;2.55;;;;;;;;;;5031705;28;20032;-38
2022/07/03 14:22:53;;;;;;;6.72;2.40;;;;;;;;;;5031914;28;20026;-39
2022/07/03 14:25:19;;;;;;;6.78;3.15;;;;;;;;;;5031216;28;20064;-38
2022/07/03 14:33:12;;;;;;;10.63;2.85;;;;;;;;;;5031527;28;20027;-38
2022/07/03 14:35:37;;;;;;;7.05;3.20;;;;;;;;;;5031046;28;20696;-40
2022/07/03 14:38:03;;;;;;;7.13;2.87;;;;;;;;;;5031645;28;20017;-38
2022/07/03 14:40:28;;;;;;;5.72;2.78;;;;;;;;;;5031718;28;20009;-38
2022/07/03 14:42:54;;;;;;;10.68;2.85;;;;;;;;;;5030901;28;20535;-37
2022/07/03 14:45:19;;;;;;;6.28;2.67;;;;;;;;;;5030910;28;20018;-38
2022/07/03 14:47:45;;;;;;;5.45;3.17;;;;;;;;;;5030971;28;20239;-42
2022/07/03 14:50:10;;;;;;;6.10;2.20;;;;;;;;;;5031823;28;20018;-38
2022/07/03 14:52:35;;;;;;;6.03;2.88;;;;;;;;;;5030952;28;20239;-40
2022/07/03 14:55:01;;;;;;;15.07;3.08;;;;;;;;;;5030769;28;20025;-38
2022/07/03 14:57:34;;;;;;;5.13;3.03;;;;;;;;;;5031102;28;20043;-40
2022/07/03 15:00:04;;;;;;;9.05;2.97;;;;;;;;;;5031288;28;20017;-38